Etusivu
METAR-TAF:

METAR-TAF

Lentoasemat :

Sotilaslentoasema

Meppen, Saksa

Leveyspiiri: 52-43-24N, Pituuspiiri: 007-19-35E, korkeus merenpinnasta: 21 m

Tämänhetkinen sää

Tämä raportti tehtiin 52 minuuttia sitten, kello 15.20 UTC
Tuuli 4 kn idästä
Lämpötila 17°C
Kosteus 77%
Ilmanpaine 1010 hPa

METAR: ETWM 141520Z AUTO 08004KT //// // ////// 17/13 Q1010 ///

Aika: 18:12 (16:12 UTC)


TAF: puuttuu

Säähavainnot ja -ennusteet yli 4000 lentoasemalta (METAR- ja TAF-raportit).

Käytössä olevat sääasemat on merkitty karttaan keltaisilla ja punaisilla pisteillä.

Aseta hiiri pisteen päälle nähdäksesi sääaseman nimen.

Klikkaa sitten nähdäksesi säähavainnot ja -ennusteet.

Kartan vaihtaminen: klikkaa mustalla rastilla varustettuja vihreitä pisteitä, niin voit zoomata sisään; viivalla varustettua vihreää pistettä, niin voit zoomata ulos tai vihreitä nuolia, niin pääset viereisille kartoille.


METAR-TAF: